createdAt,value
2023-03-23T00:00:20.299Z,9.89
2023-03-23T00:02:50.532Z,9.88
2023-03-23T00:05:21.141Z,9.94
2023-03-23T00:07:53.400Z,9.81
2023-03-23T00:10:22.852Z,9.65
2023-03-23T00:12:51.236Z,9.66
2023-03-23T00:15:19.816Z,9.63
2023-03-23T00:17:48.708Z,9.55
2023-03-23T00:20:17.126Z,9.63
2023-03-23T00:22:45.025Z,9.61
2023-03-23T00:25:13.529Z,9.50
2023-03-23T00:27:41.908Z,9.41
2023-03-23T00:30:10.860Z,9.35
2023-03-23T00:32:38.685Z,9.30
2023-03-23T00:35:07.996Z,9.29
2023-03-23T00:37:37.370Z,9.49
2023-03-23T00:40:10.921Z,9.37
2023-03-23T00:42:41.676Z,9.27
2023-03-23T00:45:12.943Z,9.36
2023-03-23T00:47:47.869Z,9.23
2023-03-23T00:50:24.245Z,9.13
2023-03-23T00:52:59.876Z,9.06
2023-03-23T00:55:27.375Z,8.99
2023-03-23T00:57:55.665Z,8.88
2023-03-23T01:00:24.399Z,9.06
2023-03-23T01:02:55.563Z,8.98
2023-03-23T01:05:24.540Z,8.84
2023-03-23T01:07:52.966Z,9.13
2023-03-23T01:10:21.511Z,9.16
2023-03-23T01:12:49.935Z,8.97
2023-03-23T01:15:20.729Z,9.02
2023-03-23T01:17:50.986Z,9.00
2023-03-23T01:20:19.205Z,8.95
2023-03-23T01:22:48.303Z,9.09
2023-03-23T01:25:16.699Z,9.01
2023-03-23T01:27:44.335Z,8.87
2023-03-23T01:30:15.772Z,8.95
2023-03-23T01:32:46.063Z,8.82
2023-03-23T01:35:17.319Z,8.73
2023-03-23T01:37:48.600Z,8.67
2023-03-23T01:40:18.885Z,8.68
2023-03-23T01:42:49.344Z,8.70
2023-03-23T01:45:35.876Z,8.64
2023-03-23T01:48:38.187Z,8.59
2023-03-23T01:51:16.992Z,8.53
2023-03-23T01:54:05.159Z,8.47
2023-03-23T01:56:51.518Z,8.49
2023-03-23T01:59:28.128Z,8.46
2023-03-23T02:01:58.630Z,8.45
2023-03-23T02:04:32.864Z,8.76
2023-03-23T02:07:04.456Z,8.78
2023-03-23T02:09:34.885Z,8.73
2023-03-23T02:12:09.648Z,8.72
2023-03-23T02:14:39.935Z,8.77
2023-03-23T02:17:49.304Z,8.85
2023-03-23T02:21:47.425Z,8.84
2023-03-23T02:24:59.729Z,8.90
2023-03-23T02:28:03.267Z,9.00
2023-03-23T02:31:26.835Z,8.99
2023-03-23T02:34:06.183Z,8.98
2023-03-23T02:37:07.465Z,9.00
2023-03-23T02:39:54.629Z,8.96
2023-03-23T02:42:33.791Z,8.98
2023-03-23T02:45:11.518Z,9.27
2023-03-23T02:47:45.018Z,9.23
2023-03-23T02:50:22.788Z,9.23
2023-03-23T02:52:59.732Z,9.36
2023-03-23T02:55:33.320Z,9.33
2023-03-23T02:58:03.704Z,9.35
2023-03-23T03:00:33.851Z,9.38
2023-03-23T03:03:17.628Z,9.49
2023-03-23T03:06:30.852Z,9.43
2023-03-23T03:09:24.592Z,9.44
2023-03-23T03:12:22.266Z,9.54
2023-03-23T03:15:38.898Z,9.54
2023-03-23T03:18:28.737Z,9.61
2023-03-23T03:21:14.154Z,9.56
2023-03-23T03:23:50.586Z,9.64
2023-03-23T03:26:22.853Z,9.60
2023-03-23T03:28:51.541Z,9.68
2023-03-23T03:31:30.239Z,9.82
2023-03-23T03:34:02.433Z,9.81
2023-03-23T03:36:37.382Z,9.70
2023-03-23T03:39:11.635Z,9.78
2023-03-23T03:41:43.129Z,9.82
2023-03-23T03:44:13.712Z,9.91
2023-03-23T03:46:44.176Z,9.93
2023-03-23T03:49:14.839Z,10.08
2023-03-23T03:51:45.816Z,9.93
2023-03-23T03:54:17.049Z,10.05
2023-03-23T03:56:49.065Z,9.90
2023-03-23T03:59:21.804Z,9.86
2023-03-23T04:01:55.181Z,9.87
2023-03-23T04:04:25.443Z,9.84
2023-03-23T04:06:55.634Z,9.86
2023-03-23T04:09:28.216Z,9.87
2023-03-23T04:11:58.581Z,9.74
2023-03-23T04:14:28.660Z,9.61
2023-03-23T04:17:00.128Z,9.50
2023-03-23T04:19:33.901Z,9.44
2023-03-23T04:22:06.717Z,9.41
2023-03-23T04:24:57.097Z,9.37
2023-03-23T04:27:29.306Z,9.54
2023-03-23T04:29:59.966Z,9.54
2023-03-23T04:32:31.766Z,9.45
2023-03-23T04:35:12.805Z,9.47
2023-03-23T04:37:45.181Z,9.39
2023-03-23T04:40:17.858Z,9.52
2023-03-23T04:42:49.904Z,9.44
2023-03-23T04:45:23.177Z,9.40
2023-03-23T04:47:58.592Z,9.29
2023-03-23T04:50:31.995Z,9.35
2023-03-23T04:53:07.362Z,9.38
2023-03-23T04:55:38.560Z,9.30
2023-03-23T04:58:09.897Z,9.23
2023-03-23T05:00:38.181Z,9.21
2023-03-23T05:03:08.514Z,9.24
2023-03-23T05:05:38.525Z,9.34
2023-03-23T05:08:07.341Z,9.27
2023-03-23T05:10:36.042Z,9.19
2023-03-23T05:13:04.876Z,9.17
2023-03-23T05:15:33.663Z,9.12
2023-03-23T05:18:02.656Z,9.11
2023-03-23T05:20:31.794Z,9.13
2023-03-23T05:23:00.658Z,9.18
2023-03-23T05:25:29.691Z,9.19
2023-03-23T05:28:00.289Z,9.19
2023-03-23T05:30:31.078Z,9.14
2023-03-23T05:32:59.229Z,9.09
2023-03-23T05:35:28.384Z,9.05
2023-03-23T05:37:58.134Z,9.00
2023-03-23T05:40:32.400Z,8.95
2023-03-23T05:43:02.678Z,8.93
2023-03-23T05:45:32.974Z,8.91
2023-03-23T05:48:03.270Z,8.91
2023-03-23T05:50:34.178Z,8.90
2023-03-23T05:53:05.371Z,8.86
2023-03-23T05:55:35.744Z,8.80
2023-03-23T05:58:05.928Z,8.99
2023-03-23T06:00:36.318Z,9.22
2023-03-23T06:03:06.915Z,9.46
2023-03-23T06:05:37.855Z,9.64
2023-03-23T06:08:08.519Z,9.47
2023-03-23T06:10:39.022Z,9.46
2023-03-23T06:13:09.193Z,9.50
2023-03-23T06:15:39.489Z,9.41
2023-03-23T06:18:09.831Z,9.23
2023-03-23T06:20:40.453Z,9.11
2023-03-23T06:23:14.627Z,9.13
2023-03-23T06:25:45.874Z,9.04
2023-03-23T06:28:18.555Z,9.22
2023-03-23T06:30:48.951Z,9.21
2023-03-23T06:33:19.886Z,9.08
2023-03-23T06:35:50.134Z,9.04
2023-03-23T06:38:20.255Z,9.07
2023-03-23T06:40:58.053Z,9.05
2023-03-23T06:43:36.498Z,9.15
2023-03-23T06:46:08.391Z,9.23
2023-03-23T06:48:39.497Z,9.14
2023-03-23T06:51:09.632Z,9.17
2023-03-23T06:53:39.790Z,9.10
2023-03-23T06:56:10.514Z,9.11
2023-03-23T06:58:43.010Z,9.21
2023-03-23T07:01:13.970Z,9.22
2023-03-23T07:03:44.999Z,9.56
2023-03-23T07:06:15.122Z,9.49
2023-03-23T07:08:45.305Z,9.42
2023-03-23T07:11:14.093Z,9.36
2023-03-23T07:13:42.251Z,9.32
2023-03-23T07:16:12.018Z,9.37
2023-03-23T07:18:42.233Z,9.50
2023-03-23T07:21:11.298Z,9.52
2023-03-23T07:23:38.995Z,9.51
2023-03-23T07:26:08.742Z,9.50
2023-03-23T07:28:38.902Z,9.52
2023-03-23T07:31:09.990Z,9.53
2023-03-23T07:33:41.031Z,9.62
2023-03-23T07:36:11.836Z,9.48
2023-03-23T07:38:42.385Z,9.61
2023-03-23T07:41:12.839Z,9.69
2023-03-23T07:43:43.147Z,9.63
2023-03-23T07:46:14.893Z,9.51
2023-03-23T07:48:45.047Z,9.60
2023-03-23T07:51:17.413Z,9.69
2023-03-23T07:53:47.975Z,10.00
2023-03-23T07:56:20.671Z,10.03
2023-03-23T07:58:50.867Z,10.24
2023-03-23T08:01:21.146Z,10.25
2023-03-23T08:03:53.256Z,10.18
2023-03-23T08:06:24.431Z,10.05
2023-03-23T08:08:56.497Z,10.11
2023-03-23T08:11:27.982Z,10.10
2023-03-23T08:13:58.343Z,10.29
2023-03-23T08:16:28.767Z,10.12
2023-03-23T08:18:59.852Z,10.26
2023-03-23T08:21:38.811Z,10.39
2023-03-23T08:24:09.009Z,10.36
2023-03-23T08:26:39.277Z,10.50
2023-03-23T08:29:11.922Z,10.54
2023-03-23T08:31:40.630Z,10.57
2023-03-23T08:34:11.787Z,10.53
2023-03-23T08:36:40.912Z,10.56
2023-03-23T08:39:11.438Z,10.49
2023-03-23T08:41:42.303Z,10.44
2023-03-23T08:44:13.059Z,10.66
2023-03-23T08:46:43.110Z,10.56
2023-03-23T08:49:13.079Z,10.76
2023-03-23T08:51:43.258Z,10.76
2023-03-23T08:54:13.437Z,11.01
2023-03-23T08:56:43.771Z,11.06
2023-03-23T08:59:13.933Z,11.11
2023-03-23T09:01:44.012Z,11.17
2023-03-23T09:04:17.923Z,11.16
2023-03-23T09:06:46.868Z,11.30
2023-03-23T09:09:16.879Z,11.51
2023-03-23T09:11:46.465Z,11.73
2023-03-23T09:14:16.894Z,11.81
2023-03-23T09:16:44.576Z,11.65
2023-03-23T09:19:13.716Z,11.76
2023-03-23T09:21:41.345Z,11.77
2023-03-23T09:24:10.414Z,11.84
2023-03-23T09:26:38.598Z,11.87
2023-03-23T09:29:06.772Z,11.95
2023-03-23T09:31:37.890Z,12.02
2023-03-23T09:34:07.440Z,12.13
2023-03-23T09:36:34.885Z,12.02
2023-03-23T09:39:08.769Z,12.15
2023-03-23T09:42:48.472Z,12.31
2023-03-23T09:46:12.219Z,12.35
2023-03-23T09:48:59.143Z,12.51
2023-03-23T09:51:52.605Z,12.65
2023-03-23T09:54:51.767Z,12.87
2023-03-23T09:57:34.337Z,13.18
2023-03-23T10:00:55.164Z,13.21
2023-03-23T10:03:39.945Z,13.21
2023-03-23T10:06:19.008Z,13.25
2023-03-23T10:08:57.543Z,13.28
2023-03-23T10:11:51.291Z,13.18
2023-03-23T10:15:12.180Z,13.08
2023-03-23T10:18:44.751Z,13.13
2023-03-23T10:21:25.322Z,12.97
2023-03-23T10:24:10.293Z,13.10
2023-03-23T10:27:41.683Z,13.17
2023-03-23T10:30:13.057Z,13.31
2023-03-23T10:32:59.450Z,13.40
2023-03-23T10:35:52.593Z,13.49
2023-03-23T10:38:44.693Z,13.29
2023-03-23T10:41:20.877Z,13.32
2023-03-23T10:43:51.691Z,13.29
2023-03-23T10:47:06.622Z,13.44
2023-03-23T10:49:51.806Z,13.51
2023-03-23T10:52:37.136Z,13.43
2023-03-23T10:55:14.894Z,13.29
2023-03-23T10:58:02.343Z,13.29
2023-03-23T11:00:41.618Z,13.29
2023-03-23T11:03:18.497Z,13.33
2023-03-23T11:06:07.948Z,13.26
2023-03-23T11:09:17.876Z,13.42
2023-03-23T11:12:02.155Z,13.42
2023-03-23T11:14:40.208Z,13.51
2023-03-23T11:17:28.709Z,13.54
2023-03-23T11:19:59.041Z,13.47
2023-03-23T11:22:34.659Z,13.54
2023-03-23T11:25:12.962Z,13.60
2023-03-23T11:27:44.467Z,13.74
2023-03-23T11:30:31.236Z,13.64
2023-03-23T11:33:04.265Z,13.87
2023-03-23T11:35:35.298Z,13.84
2023-03-23T11:38:07.399Z,13.73
2023-03-23T11:40:54.185Z,13.95
2023-03-23T11:43:29.063Z,14.02
2023-03-23T11:46:36.102Z,14.25
2023-03-23T11:49:49.120Z,14.33
2023-03-23T11:53:21.293Z,14.31
2023-03-23T11:56:07.800Z,14.22
2023-03-23T11:58:38.552Z,14.29
2023-03-23T12:01:43.134Z,14.30
2023-03-23T12:04:40.856Z,14.58
2023-03-23T12:08:14.965Z,14.74
2023-03-23T12:11:20.544Z,14.72
2023-03-23T12:14:21.440Z,14.67
2023-03-23T12:17:36.558Z,14.88
2023-03-23T12:20:50.222Z,15.14
2023-03-23T12:24:36.077Z,15.10
2023-03-23T12:28:02.662Z,14.96
2023-03-23T12:31:02.605Z,14.75
2023-03-23T12:34:06.572Z,15.07
2023-03-23T12:37:12.780Z,15.03
2023-03-23T12:40:18.484Z,14.91
2023-03-23T12:43:34.022Z,14.69
2023-03-23T12:47:14.431Z,14.96
2023-03-23T12:50:42.601Z,14.93
2023-03-23T12:53:36.559Z,15.00
2023-03-23T12:56:34.697Z,14.99
2023-03-23T12:59:16.089Z,14.69
2023-03-23T13:02:00.381Z,14.74
2023-03-23T13:04:45.926Z,14.86
2023-03-23T13:07:38.167Z,15.32
2023-03-23T13:10:28.440Z,15.69
2023-03-23T13:13:01.297Z,16.41
2023-03-23T13:15:53.804Z,16.81
2023-03-23T13:19:12.741Z,16.95
2023-03-23T13:21:57.769Z,16.75
2023-03-23T13:24:39.304Z,16.91
2023-03-23T13:27:13.167Z,17.31
2023-03-23T13:29:48.020Z,17.31
2023-03-23T13:32:21.159Z,16.81
2023-03-23T13:34:53.776Z,16.86
2023-03-23T13:37:29.038Z,16.69
2023-03-23T13:40:32.843Z,16.34
2023-03-23T13:43:03.049Z,16.26
2023-03-23T13:45:34.740Z,16.24
2023-03-23T13:48:18.492Z,16.61
2023-03-23T13:50:58.393Z,16.87
2023-03-23T13:53:49.491Z,16.43
2023-03-23T13:56:42.197Z,16.14
2023-03-23T13:59:35.762Z,16.14
2023-03-23T14:02:43.917Z,15.95
2023-03-23T14:05:21.430Z,15.49
2023-03-23T14:08:01.997Z,15.46
2023-03-23T14:10:45.539Z,15.58
2023-03-23T14:13:58.157Z,15.62
2023-03-23T14:16:53.161Z,16.10
2023-03-23T14:19:31.999Z,16.61
2023-03-23T14:22:03.655Z,16.46
2023-03-23T14:24:41.930Z,15.85
2023-03-23T14:27:22.453Z,15.39
2023-03-23T14:30:09.938Z,15.22
2023-03-23T14:32:41.631Z,15.16
2023-03-23T14:35:36.799Z,15.32
2023-03-23T14:38:22.353Z,15.00
2023-03-23T14:40:52.938Z,14.85
2023-03-23T14:43:24.842Z,14.68
2023-03-23T14:46:03.223Z,14.52
2023-03-23T14:48:31.835Z,14.47
2023-03-23T14:51:06.110Z,14.31
2023-03-23T14:53:43.372Z,14.32
2023-03-23T14:56:23.450Z,14.23
2023-03-23T14:58:54.024Z,14.33
2023-03-23T15:01:35.112Z,15.45
2023-03-23T15:04:24.310Z,16.08
2023-03-23T15:07:06.307Z,15.97
2023-03-23T15:09:47.029Z,15.60
2023-03-23T15:12:32.158Z,15.32
2023-03-23T15:15:17.045Z,14.99
2023-03-23T15:17:48.478Z,14.90
2023-03-23T15:20:44.414Z,14.86
2023-03-23T15:23:29.142Z,14.84
2023-03-23T15:26:08.814Z,15.39
2023-03-23T15:28:42.231Z,16.84
2023-03-23T15:31:09.659Z,18.00
2023-03-23T15:33:42.183Z,18.38
2023-03-23T15:36:19.461Z,18.46
2023-03-23T15:38:49.106Z,17.77
2023-03-23T15:41:29.504Z,17.49
2023-03-23T15:44:13.200Z,17.30
2023-03-23T15:47:13.455Z,17.04
2023-03-23T15:49:45.625Z,16.44
2023-03-23T15:52:16.195Z,15.98
2023-03-23T15:54:50.472Z,15.78
2023-03-23T15:57:20.651Z,15.58
2023-03-23T15:59:50.804Z,15.38
2023-03-23T16:02:26.237Z,15.15
2023-03-23T16:04:56.545Z,14.94
2023-03-23T16:07:26.680Z,14.91
2023-03-23T16:09:56.886Z,14.74
2023-03-23T16:12:26.998Z,14.61
2023-03-23T16:14:57.133Z,14.46
2023-03-23T16:17:27.288Z,14.47
2023-03-23T16:19:55.964Z,14.53
2023-03-23T16:22:24.711Z,14.62
2023-03-23T16:24:53.070Z,14.51
2023-03-23T16:27:22.483Z,14.36
2023-03-23T16:30:03.089Z,14.37
2023-03-23T16:35:02.189Z,14.19
2023-03-23T16:37:34.716Z,14.15
2023-03-23T16:40:08.571Z,14.15
2023-03-23T16:42:38.805Z,13.95
2023-03-23T16:45:09.835Z,13.95
2023-03-23T16:47:41.838Z,13.99
2023-03-23T16:50:19.093Z,13.89
2023-03-23T16:52:49.329Z,13.73
2023-03-23T16:55:19.610Z,13.70
2023-03-23T16:57:49.724Z,13.61
2023-03-23T17:00:22.338Z,13.66
2023-03-23T17:02:57.062Z,13.64
2023-03-23T17:05:29.808Z,13.51
2023-03-23T17:07:59.902Z,13.32
2023-03-23T17:10:33.733Z,13.24
2023-03-23T17:13:03.895Z,13.32
2023-03-23T17:15:38.867Z,13.30
2023-03-23T17:18:09.849Z,13.19
2023-03-23T17:20:40.216Z,13.11
2023-03-23T17:23:10.631Z,13.05
2023-03-23T17:25:41.080Z,12.98
2023-03-23T17:28:11.464Z,12.92
2023-03-23T17:30:45.060Z,12.84
2023-03-23T17:33:15.528Z,12.76
2023-03-23T17:35:52.017Z,12.73
2023-03-23T17:38:22.367Z,12.91
2023-03-23T17:40:59.162Z,12.84
2023-03-23T17:43:29.273Z,12.77
2023-03-23T17:45:59.465Z,12.62
2023-03-23T17:48:29.569Z,12.51
2023-03-23T17:51:02.536Z,12.28
2023-03-23T17:53:35.848Z,12.01
2023-03-23T17:56:07.615Z,11.78
2023-03-23T17:58:37.630Z,11.64
2023-03-23T18:01:05.686Z,11.58
2023-03-23T18:03:36.065Z,11.55
2023-03-23T18:06:09.224Z,11.47
2023-03-23T18:08:38.997Z,11.34
2023-03-23T18:11:09.424Z,11.31
2023-03-23T18:13:39.425Z,11.31
2023-03-23T18:16:08.799Z,11.23
2023-03-23T18:18:38.969Z,11.07
2023-03-23T18:21:11.054Z,11.05
2023-03-23T18:23:49.041Z,10.96
2023-03-23T18:26:23.466Z,10.91
2023-03-23T18:28:54.075Z,10.82
2023-03-23T18:31:25.325Z,10.71
2023-03-23T18:33:56.100Z,10.72
2023-03-23T18:36:28.585Z,10.71
2023-03-23T18:38:59.174Z,10.66
2023-03-23T18:41:29.660Z,10.62
2023-03-23T18:43:59.869Z,10.59
2023-03-23T18:46:30.098Z,10.58
2023-03-23T18:49:00.362Z,10.53
2023-03-23T18:51:31.077Z,10.56
2023-03-23T18:54:01.213Z,10.48
2023-03-23T18:56:31.386Z,10.46
2023-03-23T18:59:01.588Z,10.39
2023-03-23T19:01:32.306Z,10.35
2023-03-23T19:04:02.674Z,10.33
2023-03-23T19:06:37.383Z,10.32
2023-03-23T19:09:07.478Z,10.28
2023-03-23T19:11:37.665Z,10.25
2023-03-23T19:14:07.954Z,10.19
2023-03-23T19:16:38.166Z,10.15
2023-03-23T19:19:09.100Z,10.12
2023-03-23T19:21:40.890Z,10.09
2023-03-23T19:24:12.082Z,10.08
2023-03-23T19:26:46.736Z,10.07
2023-03-23T19:31:55.509Z,9.95
2023-03-23T19:34:28.415Z,9.95
2023-03-23T19:37:05.401Z,9.92
2023-03-23T19:39:35.443Z,9.88
2023-03-23T19:42:08.696Z,9.96
2023-03-23T19:44:39.278Z,9.95
2023-03-23T19:47:10.711Z,9.92
2023-03-23T19:49:41.390Z,9.89
2023-03-23T19:52:13.529Z,9.89
2023-03-23T19:54:45.348Z,9.92
2023-03-23T19:57:16.780Z,9.93
2023-03-23T19:59:48.293Z,9.98
2023-03-23T20:02:18.606Z,9.95
2023-03-23T20:04:48.815Z,10.03
2023-03-23T20:07:20.585Z,10.02
2023-03-23T20:09:51.598Z,10.01
2023-03-23T20:12:21.768Z,10.01
2023-03-23T20:14:50.897Z,10.02
2023-03-23T20:17:18.747Z,10.05
2023-03-23T20:19:47.111Z,10.02
2023-03-23T20:22:15.661Z,9.98
2023-03-23T20:24:47.314Z,10.01
2023-03-23T20:27:18.228Z,9.96
2023-03-23T20:29:48.439Z,9.94
2023-03-23T20:32:18.677Z,9.91
2023-03-23T20:34:49.666Z,9.89
2023-03-23T20:37:20.955Z,9.89
2023-03-23T20:39:49.002Z,9.90
2023-03-23T20:42:17.272Z,9.99
2023-03-23T20:44:45.992Z,10.06
2023-03-23T20:47:14.032Z,10.09
2023-03-23T20:49:42.404Z,10.05
2023-03-23T20:52:26.401Z,9.99
2023-03-23T20:54:57.018Z,10.13
2023-03-23T20:57:29.036Z,10.14
2023-03-23T20:59:59.170Z,9.98
2023-03-23T21:02:30.242Z,10.05
2023-03-23T21:05:04.953Z,10.04
2023-03-23T21:07:36.309Z,9.93
2023-03-23T21:10:07.483Z,9.84
2023-03-23T21:12:37.567Z,9.78
2023-03-23T21:15:08.502Z,9.74
2023-03-23T21:17:38.593Z,9.69
2023-03-23T21:20:11.199Z,9.67
2023-03-23T21:22:41.477Z,9.70
2023-03-23T21:25:11.788Z,9.68
2023-03-23T21:27:41.992Z,9.62
2023-03-23T21:30:12.373Z,9.57
2023-03-23T21:32:42.500Z,9.49
2023-03-23T21:35:13.489Z,9.47
2023-03-23T21:37:43.600Z,9.36
2023-03-23T21:40:17.813Z,9.25
2023-03-23T21:42:49.473Z,9.12
2023-03-23T21:45:21.239Z,9.01
2023-03-23T21:47:57.149Z,8.86
2023-03-23T21:50:27.308Z,8.73
2023-03-23T21:52:57.436Z,8.62
2023-03-23T21:55:29.762Z,8.50
2023-03-23T21:57:59.446Z,8.42
2023-03-23T22:00:28.588Z,8.31
2023-03-23T22:02:56.141Z,8.21
2023-03-23T22:05:24.782Z,8.12
2023-03-23T22:07:54.370Z,8.05
2023-03-23T22:10:24.441Z,7.97
2023-03-23T22:12:55.404Z,7.89
2023-03-23T22:15:28.091Z,7.82
2023-03-23T22:17:58.376Z,7.77
2023-03-23T22:20:29.641Z,7.71
2023-03-23T22:22:59.880Z,7.67
2023-03-23T22:25:30.065Z,7.64
2023-03-23T22:28:01.321Z,7.62
2023-03-23T22:30:34.546Z,7.57
2023-03-23T22:33:04.951Z,7.52
2023-03-23T22:35:35.466Z,7.47
2023-03-23T22:38:06.034Z,7.42
2023-03-23T22:40:36.578Z,7.45
2023-03-23T22:43:06.784Z,7.44
2023-03-23T22:45:37.202Z,7.49
2023-03-23T22:48:08.446Z,7.43
2023-03-23T22:50:38.709Z,7.37
2023-03-23T22:53:08.896Z,7.30
2023-03-23T22:55:42.317Z,7.25
2023-03-23T22:58:14.293Z,7.17
2023-03-23T23:00:50.268Z,7.11
2023-03-23T23:03:20.726Z,7.07
2023-03-23T23:05:54.687Z,7.05
2023-03-23T23:08:29.219Z,7.09
2023-03-23T23:11:03.166Z,7.13
2023-03-23T23:13:33.731Z,7.17
2023-03-23T23:16:07.395Z,7.19
2023-03-23T23:18:40.878Z,7.17
2023-03-23T23:21:20.771Z,7.14
2023-03-23T23:23:51.881Z,7.22
2023-03-23T23:26:22.339Z,7.29
2023-03-23T23:28:52.893Z,7.41
2023-03-23T23:31:32.669Z,7.43
2023-03-23T23:34:05.691Z,7.51
2023-03-23T23:36:37.141Z,7.58
2023-03-23T23:39:07.821Z,7.85
2023-03-23T23:41:38.445Z,7.87
2023-03-23T23:44:08.751Z,7.83
2023-03-23T23:46:39.668Z,7.82
2023-03-23T23:49:07.553Z,7.90
2023-03-23T23:51:37.705Z,8.01
2023-03-23T23:54:07.306Z,8.15
2023-03-23T23:56:36.318Z,8.14
2023-03-23T23:59:04.129Z,8.21
